sensor_id;sensor_type;location;lat;lon;timestamp;P1;durP1;ratioP1;P2;durP2;ratioP2
6017;SDS011;3037;51.068;13.780;2023-04-03T00:01:27;3.53;;;1.97;;
6017;SDS011;3037;51.068;13.780;2023-04-03T00:03:53;4.10;;;2.83;;
6017;SDS011;3037;51.068;13.780;2023-04-03T00:06:19;3.80;;;1.80;;
6017;SDS011;3037;51.068;13.780;2023-04-03T00:08:45;3.67;;;1.93;;
6017;SDS011;3037;51.068;13.780;2023-04-03T00:11:10;1.93;;;1.73;;
6017;SDS011;3037;51.068;13.780;2023-04-03T00:13:36;4.37;;;2.00;;
6017;SDS011;3037;51.068;13.780;2023-04-03T00:16:03;6.00;;;2.00;;
6017;SDS011;3037;51.068;13.780;2023-04-03T00:18:30;5.70;;;1.87;;
6017;SDS011;3037;51.068;13.780;2023-04-03T00:20:56;6.63;;;2.37;;
6017;SDS011;3037;51.068;13.780;2023-04-03T00:23:21;2.40;;;1.77;;
6017;SDS011;3037;51.068;13.780;2023-04-03T00:25:48;2.50;;;1.80;;
6017;SDS011;3037;51.068;13.780;2023-04-03T00:28:14;3.03;;;1.50;;
6017;SDS011;3037;51.068;13.780;2023-04-03T00:30:40;4.83;;;1.90;;
6017;SDS011;3037;51.068;13.780;2023-04-03T00:33:05;2.73;;;1.93;;
6017;SDS011;3037;51.068;13.780;2023-04-03T00:35:31;2.93;;;1.60;;
6017;SDS011;3037;51.068;13.780;2023-04-03T00:37:58;4.17;;;1.73;;
6017;SDS011;3037;51.068;13.780;2023-04-03T00:40:25;2.00;;;1.70;;
6017;SDS011;3037;51.068;13.780;2023-04-03T00:42:54;2.90;;;2.20;;
6017;SDS011;3037;51.068;13.780;2023-04-03T00:45:30;2.77;;;2.00;;
6017;SDS011;3037;51.068;13.780;2023-04-03T00:47:58;2.03;;;1.93;;
6017;SDS011;3037;51.068;13.780;2023-04-03T00:50:27;7.47;;;2.20;;
6017;SDS011;3037;51.068;13.780;2023-04-03T00:52:54;8.37;;;2.40;;
6017;SDS011;3037;51.068;13.780;2023-04-03T00:55:20;6.33;;;2.00;;
6017;SDS011;3037;51.068;13.780;2023-04-03T00:57:46;4.40;;;1.97;;
6017;SDS011;3037;51.068;13.780;2023-04-03T01:00:13;5.03;;;2.23;;
6017;SDS011;3037;51.068;13.780;2023-04-03T01:02:42;3.23;;;2.93;;
6017;SDS011;3037;51.068;13.780;2023-04-03T01:05:07;5.33;;;2.37;;
6017;SDS011;3037;51.068;13.780;2023-04-03T01:07:34;2.50;;;1.87;;
6017;SDS011;3037;51.068;13.780;2023-04-03T01:10:03;2.73;;;2.40;;
6017;SDS011;3037;51.068;13.780;2023-04-03T01:12:33;3.60;;;2.20;;
6017;SDS011;3037;51.068;13.780;2023-04-03T01:15:10;2.30;;;2.20;;
6017;SDS011;3037;51.068;13.780;2023-04-03T01:17:39;3.70;;;1.90;;
6017;SDS011;3037;51.068;13.780;2023-04-03T01:22:59;2.03;;;1.93;;
6017;SDS011;3037;51.068;13.780;2023-04-03T01:25:36;4.70;;;2.40;;
6017;SDS011;3037;51.068;13.780;2023-04-03T01:28:12;2.20;;;2.00;;
6017;SDS011;3037;51.068;13.780;2023-04-03T01:30:45;3.80;;;2.60;;
6017;SDS011;3037;51.068;13.780;2023-04-03T01:33:15;3.27;;;2.00;;
6017;SDS011;3037;51.068;13.780;2023-04-03T01:35:40;5.20;;;2.20;;
6017;SDS011;3037;51.068;13.780;2023-04-03T01:38:06;7.10;;;2.37;;
6017;SDS011;3037;51.068;13.780;2023-04-03T01:40:31;2.63;;;2.00;;
6017;SDS011;3037;51.068;13.780;2023-04-03T01:42:57;8.53;;;2.10;;
6017;SDS011;3037;51.068;13.780;2023-04-03T01:45:22;3.93;;;1.60;;
6017;SDS011;3037;51.068;13.780;2023-04-03T01:47:48;17.73;;;2.63;;
6017;SDS011;3037;51.068;13.780;2023-04-03T01:50:13;4.03;;;1.90;;
6017;SDS011;3037;51.068;13.780;2023-04-03T01:52:39;5.83;;;2.03;;
6017;SDS011;3037;51.068;13.780;2023-04-03T01:55:05;4.10;;;2.97;;
6017;SDS011;3037;51.068;13.780;2023-04-03T01:57:30;2.17;;;2.00;;
6017;SDS011;3037;51.068;13.780;2023-04-03T01:59:56;2.90;;;1.90;;
6017;SDS011;3037;51.068;13.780;2023-04-03T02:02:21;6.73;;;3.17;;
6017;SDS011;3037;51.068;13.780;2023-04-03T02:04:47;5.40;;;2.90;;
6017;SDS011;3037;51.068;13.780;2023-04-03T02:07:13;5.40;;;1.83;;
6017;SDS011;3037;51.068;13.780;2023-04-03T02:09:38;9.13;;;2.57;;
6017;SDS011;3037;51.068;13.780;2023-04-03T02:12:04;4.03;;;1.90;;
6017;SDS011;3037;51.068;13.780;2023-04-03T02:14:29;17.20;;;5.97;;
6017;SDS011;3037;51.068;13.780;2023-04-03T02:16:55;28.27;;;8.67;;
6017;SDS011;3037;51.068;13.780;2023-04-03T02:19:20;6.63;;;2.67;;
6017;SDS011;3037;51.068;13.780;2023-04-03T02:21:46;4.43;;;2.33;;
6017;SDS011;3037;51.068;13.780;2023-04-03T02:24:11;4.47;;;1.97;;
6017;SDS011;3037;51.068;13.780;2023-04-03T02:26:37;10.53;;;2.47;;
6017;SDS011;3037;51.068;13.780;2023-04-03T02:29:02;9.60;;;3.67;;
6017;SDS011;3037;51.068;13.780;2023-04-03T02:31:28;16.53;;;3.93;;
6017;SDS011;3037;51.068;13.780;2023-04-03T02:33:53;9.50;;;2.13;;
6017;SDS011;3037;51.068;13.780;2023-04-03T02:36:19;5.67;;;2.83;;
6017;SDS011;3037;51.068;13.780;2023-04-03T02:38:45;3.90;;;2.60;;
6017;SDS011;3037;51.068;13.780;2023-04-03T02:41:11;4.33;;;2.00;;
6017;SDS011;3037;51.068;13.780;2023-04-03T02:43:37;6.43;;;1.97;;
6017;SDS011;3037;51.068;13.780;2023-04-03T02:46:03;5.87;;;2.07;;
6017;SDS011;3037;51.068;13.780;2023-04-03T02:48:30;2.07;;;1.83;;
6017;SDS011;3037;51.068;13.780;2023-04-03T02:50:56;8.20;;;1.50;;
6017;SDS011;3037;51.068;13.780;2023-04-03T02:53:21;4.73;;;2.13;;
6017;SDS011;3037;51.068;13.780;2023-04-03T02:55:47;4.07;;;2.13;;
6017;SDS011;3037;51.068;13.780;2023-04-03T02:58:13;7.30;;;2.10;;
6017;SDS011;3037;51.068;13.780;2023-04-03T03:00:39;13.57;;;1.97;;
6017;SDS011;3037;51.068;13.780;2023-04-03T03:03:04;3.10;;;1.90;;
6017;SDS011;3037;51.068;13.780;2023-04-03T03:05:30;2.60;;;2.40;;
6017;SDS011;3037;51.068;13.780;2023-04-03T03:07:56;2.47;;;1.73;;
6017;SDS011;3037;51.068;13.780;2023-04-03T03:10:22;3.93;;;2.10;;
6017;SDS011;3037;51.068;13.780;2023-04-03T03:12:47;1.83;;;1.73;;
6017;SDS011;3037;51.068;13.780;2023-04-03T03:15:13;7.77;;;2.33;;
6017;SDS011;3037;51.068;13.780;2023-04-03T03:17:40;4.50;;;2.40;;
6017;SDS011;3037;51.068;13.780;2023-04-03T03:20:06;4.00;;;2.37;;
6017;SDS011;3037;51.068;13.780;2023-04-03T03:22:32;2.80;;;2.60;;
6017;SDS011;3037;51.068;13.780;2023-04-03T03:24:58;4.67;;;1.90;;
6017;SDS011;3037;51.068;13.780;2023-04-03T03:27:24;3.70;;;2.60;;
6017;SDS011;3037;51.068;13.780;2023-04-03T03:29:49;2.97;;;2.60;;
6017;SDS011;3037;51.068;13.780;2023-04-03T03:32:15;7.13;;;2.07;;
6017;SDS011;3037;51.068;13.780;2023-04-03T03:34:41;2.90;;;2.03;;
6017;SDS011;3037;51.068;13.780;2023-04-03T03:37:06;1.97;;;1.87;;
6017;SDS011;3037;51.068;13.780;2023-04-03T03:39:32;3.23;;;1.90;;
6017;SDS011;3037;51.068;13.780;2023-04-03T03:41:57;6.60;;;2.20;;
6017;SDS011;3037;51.068;13.780;2023-04-03T03:44:23;2.00;;;1.90;;
6017;SDS011;3037;51.068;13.780;2023-04-03T03:46:48;7.40;;;2.87;;
6017;SDS011;3037;51.068;13.780;2023-04-03T03:49:14;6.30;;;2.40;;
6017;SDS011;3037;51.068;13.780;2023-04-03T03:51:40;5.67;;;2.30;;
6017;SDS011;3037;51.068;13.780;2023-04-03T03:54:05;5.10;;;1.93;;
6017;SDS011;3037;51.068;13.780;2023-04-03T03:56:31;5.67;;;1.83;;
6017;SDS011;3037;51.068;13.780;2023-04-03T03:58:57;3.30;;;2.10;;
6017;SDS011;3037;51.068;13.780;2023-04-03T04:01:23;4.70;;;1.90;;
6017;SDS011;3037;51.068;13.780;2023-04-03T04:03:49;6.20;;;2.10;;
6017;SDS011;3037;51.068;13.780;2023-04-03T04:06:15;3.80;;;2.03;;
6017;SDS011;3037;51.068;13.780;2023-04-03T04:08:40;1.93;;;1.83;;
6017;SDS011;3037;51.068;13.780;2023-04-03T04:11:06;5.33;;;2.50;;
6017;SDS011;3037;51.068;13.780;2023-04-03T04:13:32;3.33;;;2.30;;
6017;SDS011;3037;51.068;13.780;2023-04-03T04:15:58;2.57;;;2.40;;
6017;SDS011;3037;51.068;13.780;2023-04-03T04:18:23;7.83;;;2.03;;
6017;SDS011;3037;51.068;13.780;2023-04-03T04:20:49;2.00;;;1.80;;
6017;SDS011;3037;51.068;13.780;2023-04-03T04:23:16;4.70;;;1.87;;
6017;SDS011;3037;51.068;13.780;2023-04-03T04:25:44;2.70;;;2.20;;
6017;SDS011;3037;51.068;13.780;2023-04-03T04:28:10;7.23;;;2.13;;
6017;SDS011;3037;51.068;13.780;2023-04-03T04:30:36;5.50;;;3.47;;
6017;SDS011;3037;51.068;13.780;2023-04-03T04:33:01;6.83;;;2.67;;
6017;SDS011;3037;51.068;13.780;2023-04-03T04:35:27;9.47;;;2.80;;
6017;SDS011;3037;51.068;13.780;2023-04-03T04:37:53;5.83;;;3.10;;
6017;SDS011;3037;51.068;13.780;2023-04-03T04:40:19;7.87;;;2.70;;
6017;SDS011;3037;51.068;13.780;2023-04-03T04:42:44;7.87;;;2.30;;
6017;SDS011;3037;51.068;13.780;2023-04-03T04:45:10;6.13;;;2.27;;
6017;SDS011;3037;51.068;13.780;2023-04-03T04:47:36;4.00;;;2.13;;
6017;SDS011;3037;51.068;13.780;2023-04-03T04:50:01;3.10;;;1.93;;
6017;SDS011;3037;51.068;13.780;2023-04-03T04:52:27;5.63;;;3.40;;
6017;SDS011;3037;51.068;13.780;2023-04-03T04:54:53;2.90;;;2.20;;
6017;SDS011;3037;51.068;13.780;2023-04-03T04:57:18;4.70;;;2.77;;
6017;SDS011;3037;51.068;13.780;2023-04-03T04:59:44;6.83;;;2.70;;
6017;SDS011;3037;51.068;13.780;2023-04-03T05:02:09;6.27;;;3.27;;
6017;SDS011;3037;51.068;13.780;2023-04-03T05:04:35;7.33;;;3.17;;
6017;SDS011;3037;51.068;13.780;2023-04-03T05:07:00;2.20;;;2.00;;
6017;SDS011;3037;51.068;13.780;2023-04-03T05:09:26;6.43;;;2.80;;
6017;SDS011;3037;51.068;13.780;2023-04-03T05:11:52;7.93;;;2.63;;
6017;SDS011;3037;51.068;13.780;2023-04-03T05:14:17;11.07;;;2.67;;
6017;SDS011;3037;51.068;13.780;2023-04-03T05:16:43;5.57;;;2.93;;
6017;SDS011;3037;51.068;13.780;2023-04-03T05:19:08;3.10;;;2.50;;
6017;SDS011;3037;51.068;13.780;2023-04-03T05:21:34;3.80;;;2.40;;
6017;SDS011;3037;51.068;13.780;2023-04-03T05:24:00;5.37;;;2.97;;
6017;SDS011;3037;51.068;13.780;2023-04-03T05:26:28;6.17;;;2.63;;
6017;SDS011;3037;51.068;13.780;2023-04-03T05:28:54;9.97;;;3.40;;
6017;SDS011;3037;51.068;13.780;2023-04-03T05:31:20;4.10;;;3.10;;
6017;SDS011;3037;51.068;13.780;2023-04-03T05:33:45;6.47;;;3.10;;
6017;SDS011;3037;51.068;13.780;2023-04-03T05:36:12;10.03;;;2.30;;
6017;SDS011;3037;51.068;13.780;2023-04-03T05:38:38;4.70;;;2.40;;
6017;SDS011;3037;51.068;13.780;2023-04-03T05:41:04;5.93;;;2.93;;
6017;SDS011;3037;51.068;13.780;2023-04-03T05:43:30;8.20;;;2.60;;
6017;SDS011;3037;51.068;13.780;2023-04-03T05:45:56;6.63;;;3.17;;
6017;SDS011;3037;51.068;13.780;2023-04-03T05:48:21;8.07;;;3.10;;
6017;SDS011;3037;51.068;13.780;2023-04-03T05:50:47;5.87;;;3.27;;
6017;SDS011;3037;51.068;13.780;2023-04-03T05:53:15;7.37;;;3.20;;
6017;SDS011;3037;51.068;13.780;2023-04-03T05:55:45;6.70;;;2.63;;
6017;SDS011;3037;51.068;13.780;2023-04-03T05:58:11;11.50;;;3.10;;
6017;SDS011;3037;51.068;13.780;2023-04-03T06:00:37;4.17;;;2.73;;
6017;SDS011;3037;51.068;13.780;2023-04-03T06:03:03;11.03;;;3.43;;
6017;SDS011;3037;51.068;13.780;2023-04-03T06:05:30;4.60;;;2.90;;
6017;SDS011;3037;51.068;13.780;2023-04-03T06:07:55;6.93;;;2.67;;
6017;SDS011;3037;51.068;13.780;2023-04-03T06:10:22;4.50;;;3.00;;
6017;SDS011;3037;51.068;13.780;2023-04-03T06:12:47;5.63;;;3.20;;
6017;SDS011;3037;51.068;13.780;2023-04-03T06:15:13;7.00;;;3.70;;
6017;SDS011;3037;51.068;13.780;2023-04-03T06:17:39;7.33;;;3.40;;
6017;SDS011;3037;51.068;13.780;2023-04-03T06:20:05;8.23;;;2.90;;
6017;SDS011;3037;51.068;13.780;2023-04-03T06:22:31;5.23;;;2.90;;
6017;SDS011;3037;51.068;13.780;2023-04-03T06:24:57;3.73;;;2.53;;
6017;SDS011;3037;51.068;13.780;2023-04-03T06:27:22;2.93;;;2.53;;
6017;SDS011;3037;51.068;13.780;2023-04-03T06:29:48;5.50;;;2.50;;
6017;SDS011;3037;51.068;13.780;2023-04-03T06:32:15;11.90;;;2.70;;
6017;SDS011;3037;51.068;13.780;2023-04-03T06:34:41;3.83;;;2.13;;
6017;SDS011;3037;51.068;13.780;2023-04-03T06:37:21;6.50;;;2.33;;
6017;SDS011;3037;51.068;13.780;2023-04-03T06:39:47;6.50;;;2.77;;
6017;SDS011;3037;51.068;13.780;2023-04-03T06:42:13;6.10;;;3.03;;
6017;SDS011;3037;51.068;13.780;2023-04-03T06:44:39;7.27;;;3.23;;
6017;SDS011;3037;51.068;13.780;2023-04-03T06:47:04;10.70;;;2.70;;
6017;SDS011;3037;51.068;13.780;2023-04-03T06:49:30;8.10;;;3.13;;
6017;SDS011;3037;51.068;13.780;2023-04-03T06:51:56;4.93;;;3.00;;
6017;SDS011;3037;51.068;13.780;2023-04-03T06:54:22;2.77;;;2.23;;
6017;SDS011;3037;51.068;13.780;2023-04-03T06:56:48;4.73;;;2.57;;
6017;SDS011;3037;51.068;13.780;2023-04-03T06:59:14;2.77;;;2.30;;
6017;SDS011;3037;51.068;13.780;2023-04-03T07:01:39;6.80;;;2.60;;
6017;SDS011;3037;51.068;13.780;2023-04-03T07:04:06;8.43;;;3.20;;
6017;SDS011;3037;51.068;13.780;2023-04-03T07:06:32;6.40;;;2.70;;
6017;SDS011;3037;51.068;13.780;2023-04-03T07:08:58;3.97;;;2.77;;
6017;SDS011;3037;51.068;13.780;2023-04-03T07:11:24;6.57;;;3.53;;
6017;SDS011;3037;51.068;13.780;2023-04-03T07:13:51;2.60;;;2.00;;
6017;SDS011;3037;51.068;13.780;2023-04-03T07:16:17;10.57;;;2.93;;
6017;SDS011;3037;51.068;13.780;2023-04-03T07:18:43;6.00;;;2.57;;
6017;SDS011;3037;51.068;13.780;2023-04-03T07:21:09;3.67;;;2.20;;
6017;SDS011;3037;51.068;13.780;2023-04-03T07:23:34;4.87;;;2.20;;
6017;SDS011;3037;51.068;13.780;2023-04-03T07:26:00;7.20;;;2.80;;
6017;SDS011;3037;51.068;13.780;2023-04-03T07:28:26;8.70;;;2.80;;
6017;SDS011;3037;51.068;13.780;2023-04-03T07:31:02;7.50;;;2.70;;
6017;SDS011;3037;51.068;13.780;2023-04-03T07:33:30;4.03;;;2.90;;
6017;SDS011;3037;51.068;13.780;2023-04-03T07:35:57;9.20;;;2.77;;
6017;SDS011;3037;51.068;13.780;2023-04-03T07:38:22;7.43;;;3.93;;
6017;SDS011;3037;51.068;13.780;2023-04-03T07:40:48;6.10;;;2.57;;
6017;SDS011;3037;51.068;13.780;2023-04-03T07:43:16;7.80;;;2.77;;
6017;SDS011;3037;51.068;13.780;2023-04-03T07:45:42;2.30;;;1.90;;
6017;SDS011;3037;51.068;13.780;2023-04-03T07:48:11;4.37;;;2.50;;
6017;SDS011;3037;51.068;13.780;2023-04-03T07:50:39;3.07;;;2.80;;
6017;SDS011;3037;51.068;13.780;2023-04-03T07:53:05;6.40;;;1.83;;
6017;SDS011;3037;51.068;13.780;2023-04-03T07:55:31;6.63;;;3.10;;
6017;SDS011;3037;51.068;13.780;2023-04-03T07:57:57;13.73;;;3.53;;
6017;SDS011;3037;51.068;13.780;2023-04-03T08:00:22;4.97;;;2.70;;
6017;SDS011;3037;51.068;13.780;2023-04-03T08:02:48;13.20;;;2.60;;
6017;SDS011;3037;51.068;13.780;2023-04-03T08:05:17;10.90;;;3.10;;
6017;SDS011;3037;51.068;13.780;2023-04-03T08:07:43;7.00;;;2.20;;
6017;SDS011;3037;51.068;13.780;2023-04-03T08:10:09;3.00;;;2.27;;
6017;SDS011;3037;51.068;13.780;2023-04-03T08:12:34;5.57;;;2.00;;
6017;SDS011;3037;51.068;13.780;2023-04-03T08:15:01;5.30;;;2.20;;
6017;SDS011;3037;51.068;13.780;2023-04-03T08:17:27;5.80;;;3.10;;
6017;SDS011;3037;51.068;13.780;2023-04-03T08:19:53;8.43;;;2.00;;
6017;SDS011;3037;51.068;13.780;2023-04-03T08:22:18;5.13;;;2.00;;
6017;SDS011;3037;51.068;13.780;2023-04-03T08:24:44;2.63;;;1.97;;
6017;SDS011;3037;51.068;13.780;2023-04-03T08:27:10;2.13;;;2.03;;
6017;SDS011;3037;51.068;13.780;2023-04-03T08:29:36;4.40;;;2.50;;
6017;SDS011;3037;51.068;13.780;2023-04-03T08:32:02;1.87;;;1.70;;
6017;SDS011;3037;51.068;13.780;2023-04-03T08:34:29;7.43;;;2.03;;
6017;SDS011;3037;51.068;13.780;2023-04-03T08:36:54;5.03;;;1.70;;
6017;SDS011;3037;51.068;13.780;2023-04-03T08:39:20;4.30;;;2.20;;
6017;SDS011;3037;51.068;13.780;2023-04-03T08:41:45;4.40;;;2.40;;
6017;SDS011;3037;51.068;13.780;2023-04-03T08:44:17;3.67;;;1.90;;
6017;SDS011;3037;51.068;13.780;2023-04-03T08:50:04;3.90;;;2.10;;
6017;SDS011;3037;51.068;13.780;2023-04-03T08:52:40;5.50;;;2.10;;
6017;SDS011;3037;51.068;13.780;2023-04-03T08:55:17;2.43;;;2.10;;
6017;SDS011;3037;51.068;13.780;2023-04-03T08:58:00;4.83;;;2.10;;
6017;SDS011;3037;51.068;13.780;2023-04-03T09:00:47;4.00;;;1.70;;
6017;SDS011;3037;51.068;13.780;2023-04-03T09:03:16;5.07;;;1.93;;
6017;SDS011;3037;51.068;13.780;2023-04-03T09:05:51;5.60;;;2.30;;
6017;SDS011;3037;51.068;13.780;2023-04-03T09:08:50;3.90;;;1.90;;
6017;SDS011;3037;51.068;13.780;2023-04-03T09:11:27;4.10;;;2.00;;
6017;SDS011;3037;51.068;13.780;2023-04-03T09:14:21;6.20;;;2.13;;
6017;SDS011;3037;51.068;13.780;2023-04-03T09:17:21;4.00;;;1.93;;
6017;SDS011;3037;51.068;13.780;2023-04-03T09:20:03;4.50;;;2.37;;
6017;SDS011;3037;51.068;13.780;2023-04-03T09:22:34;2.50;;;1.73;;
6017;SDS011;3037;51.068;13.780;2023-04-03T09:25:12;3.93;;;1.87;;
6017;SDS011;3037;51.068;13.780;2023-04-03T09:27:47;4.10;;;1.83;;
6017;SDS011;3037;51.068;13.780;2023-04-03T09:30:21;4.73;;;1.80;;
6017;SDS011;3037;51.068;13.780;2023-04-03T09:32:49;4.03;;;1.70;;
6017;SDS011;3037;51.068;13.780;2023-04-03T09:35:19;2.73;;;1.43;;
6017;SDS011;3037;51.068;13.780;2023-04-03T09:37:51;2.90;;;1.93;;
6017;SDS011;3037;51.068;13.780;2023-04-03T09:40:34;4.03;;;1.50;;
6017;SDS011;3037;51.068;13.780;2023-04-03T09:45:46;3.23;;;1.67;;
6017;SDS011;3037;51.068;13.780;2023-04-03T09:50:38;9.70;;;2.70;;
6017;SDS011;3037;51.068;13.780;2023-04-03T09:55:58;2.07;;;1.80;;
6017;SDS011;3037;51.068;13.780;2023-04-03T10:00:55;3.67;;;1.37;;
6017;SDS011;3037;51.068;13.780;2023-04-03T10:03:24;1.70;;;1.43;;
6017;SDS011;3037;51.068;13.780;2023-04-03T10:05:52;3.90;;;1.10;;
6017;SDS011;3037;51.068;13.780;2023-04-03T10:08:21;2.83;;;2.00;;
6017;SDS011;3037;51.068;13.780;2023-04-03T10:11:05;2.33;;;1.77;;
6017;SDS011;3037;51.068;13.780;2023-04-03T10:14:16;7.20;;;2.10;;
6017;SDS011;3037;51.068;13.780;2023-04-03T10:16:41;2.97;;;1.70;;
6017;SDS011;3037;51.068;13.780;2023-04-03T10:19:41;1.43;;;1.10;;
6017;SDS011;3037;51.068;13.780;2023-04-03T10:22:16;1.90;;;1.60;;
6017;SDS011;3037;51.068;13.780;2023-04-03T10:25:10;4.53;;;1.70;;
6017;SDS011;3037;51.068;13.780;2023-04-03T10:28:00;3.03;;;1.10;;
6017;SDS011;3037;51.068;13.780;2023-04-03T10:33:36;1.47;;;1.37;;
6017;SDS011;3037;51.068;13.780;2023-04-03T10:36:34;3.03;;;1.00;;
6017;SDS011;3037;51.068;13.780;2023-04-03T10:39:22;2.67;;;1.53;;
6017;SDS011;3037;51.068;13.780;2023-04-03T10:44:50;4.40;;;2.10;;
6017;SDS011;3037;51.068;13.780;2023-04-03T10:47:21;4.20;;;1.47;;
6017;SDS011;3037;51.068;13.780;2023-04-03T10:50:09;6.13;;;1.53;;
6017;SDS011;3037;51.068;13.780;2023-04-03T10:52:48;2.50;;;1.30;;
6017;SDS011;3037;51.068;13.780;2023-04-03T10:58:16;1.10;;;1.10;;
6017;SDS011;3037;51.068;13.780;2023-04-03T11:00:48;2.40;;;1.17;;
6017;SDS011;3037;51.068;13.780;2023-04-03T11:03:29;2.67;;;1.40;;
6017;SDS011;3037;51.068;13.780;2023-04-03T11:05:57;1.20;;;0.97;;
6017;SDS011;3037;51.068;13.780;2023-04-03T11:08:28;1.27;;;1.03;;
6017;SDS011;3037;51.068;13.780;2023-04-03T11:11:09;1.10;;;1.10;;
6017;SDS011;3037;51.068;13.780;2023-04-03T11:13:47;1.10;;;1.00;;
6017;SDS011;3037;51.068;13.780;2023-04-03T11:16:19;1.40;;;1.07;;
6017;SDS011;3037;51.068;13.780;2023-04-03T11:18:54;1.13;;;1.13;;
6017;SDS011;3037;51.068;13.780;2023-04-03T11:21:28;4.10;;;1.73;;
6017;SDS011;3037;51.068;13.780;2023-04-03T11:23:59;9.07;;;1.37;;
6017;SDS011;3037;51.068;13.780;2023-04-03T11:26:35;2.50;;;1.50;;
6017;SDS011;3037;51.068;13.780;2023-04-03T11:29:08;3.43;;;1.30;;
6017;SDS011;3037;51.068;13.780;2023-04-03T11:31:45;1.70;;;1.23;;
6017;SDS011;3037;51.068;13.780;2023-04-03T11:34:55;5.40;;;1.97;;
6017;SDS011;3037;51.068;13.780;2023-04-03T11:37:40;1.00;;;1.00;;
6017;SDS011;3037;51.068;13.780;2023-04-03T11:42:42;5.43;;;1.33;;
6017;SDS011;3037;51.068;13.780;2023-04-03T12:05:50;3.27;;;1.70;;
6017;SDS011;3037;51.068;13.780;2023-04-03T12:08:26;4.10;;;1.70;;
6017;SDS011;3037;51.068;13.780;2023-04-03T12:13:33;6.60;;;1.83;;
6017;SDS011;3037;51.068;13.780;2023-04-03T12:15:59;2.60;;;1.30;;
6017;SDS011;3037;51.068;13.780;2023-04-03T12:18:40;7.23;;;1.23;;
6017;SDS011;3037;51.068;13.780;2023-04-03T12:38:11;4.63;;;1.40;;
6017;SDS011;3037;51.068;13.780;2023-04-03T12:40:48;1.70;;;1.20;;
6017;SDS011;3037;51.068;13.780;2023-04-03T12:43:27;3.10;;;1.37;;
6017;SDS011;3037;51.068;13.780;2023-04-03T12:46:18;2.13;;;1.83;;
6017;SDS011;3037;51.068;13.780;2023-04-03T12:48:48;4.30;;;1.60;;
6017;SDS011;3037;51.068;13.780;2023-04-03T12:51:34;2.30;;;1.43;;
6017;SDS011;3037;51.068;13.780;2023-04-03T12:54:16;2.20;;;2.00;;
6017;SDS011;3037;51.068;13.780;2023-04-03T12:56:48;4.93;;;1.40;;
6017;SDS011;3037;51.068;13.780;2023-04-03T12:59:21;4.90;;;1.60;;
6017;SDS011;3037;51.068;13.780;2023-04-03T13:01:58;1.60;;;1.50;;
6017;SDS011;3037;51.068;13.780;2023-04-03T13:04:29;1.57;;;1.47;;
6017;SDS011;3037;51.068;13.780;2023-04-03T13:06:56;4.73;;;1.57;;
6017;SDS011;3037;51.068;13.780;2023-04-03T13:09:26;1.50;;;1.40;;
6017;SDS011;3037;51.068;13.780;2023-04-03T13:12:01;2.60;;;1.60;;
6017;SDS011;3037;51.068;13.780;2023-04-03T13:14:40;2.13;;;1.73;;
6017;SDS011;3037;51.068;13.780;2023-04-03T13:17:16;5.20;;;1.53;;
6017;SDS011;3037;51.068;13.780;2023-04-03T13:19:42;1.43;;;1.07;;
6017;SDS011;3037;51.068;13.780;2023-04-03T13:22:24;2.70;;;1.30;;
6017;SDS011;3037;51.068;13.780;2023-04-03T13:25:05;2.40;;;1.30;;
6017;SDS011;3037;51.068;13.780;2023-04-03T13:27:33;1.27;;;1.20;;
6017;SDS011;3037;51.068;13.780;2023-04-03T13:30:00;3.03;;;1.37;;
6017;SDS011;3037;51.068;13.780;2023-04-03T13:32:28;2.73;;;1.50;;
6017;SDS011;3037;51.068;13.780;2023-04-03T13:34:56;2.40;;;1.37;;
6017;SDS011;3037;51.068;13.780;2023-04-03T13:37:24;1.90;;;1.70;;
6017;SDS011;3037;51.068;13.780;2023-04-03T13:40:17;3.10;;;1.47;;
6017;SDS011;3037;51.068;13.780;2023-04-03T13:42:45;1.67;;;1.23;;
6017;SDS011;3037;51.068;13.780;2023-04-03T13:45:24;3.37;;;1.67;;
6017;SDS011;3037;51.068;13.780;2023-04-03T13:47:53;3.57;;;1.80;;
6017;SDS011;3037;51.068;13.780;2023-04-03T13:50:33;3.67;;;1.50;;
6017;SDS011;3037;51.068;13.780;2023-04-03T13:53:14;3.80;;;1.37;;
6017;SDS011;3037;51.068;13.780;2023-04-03T13:55:59;3.10;;;1.20;;
6017;SDS011;3037;51.068;13.780;2023-04-03T13:58:27;4.50;;;1.63;;
6017;SDS011;3037;51.068;13.780;2023-04-03T14:04:11;1.53;;;1.17;;
6017;SDS011;3037;51.068;13.780;2023-04-03T14:06:40;4.73;;;2.00;;
6017;SDS011;3037;51.068;13.780;2023-04-03T14:09:06;5.63;;;1.60;;
6017;SDS011;3037;51.068;13.780;2023-04-03T14:11:31;2.50;;;1.50;;
6017;SDS011;3037;51.068;13.780;2023-04-03T14:14:00;2.10;;;1.40;;
6017;SDS011;3037;51.068;13.780;2023-04-03T14:16:30;2.43;;;1.60;;
6017;SDS011;3037;51.068;13.780;2023-04-03T14:18:58;1.93;;;1.53;;
6017;SDS011;3037;51.068;13.780;2023-04-03T14:21:24;10.40;;;1.83;;
6017;SDS011;3037;51.068;13.780;2023-04-03T14:23:50;2.10;;;1.33;;
6017;SDS011;3037;51.068;13.780;2023-04-03T14:26:17;4.20;;;1.80;;
6017;SDS011;3037;51.068;13.780;2023-04-03T14:28:46;2.90;;;1.50;;
6017;SDS011;3037;51.068;13.780;2023-04-03T14:31:14;3.90;;;1.53;;
6017;SDS011;3037;51.068;13.780;2023-04-03T14:33:41;7.70;;;1.90;;
6017;SDS011;3037;51.068;13.780;2023-04-03T14:36:18;2.10;;;1.30;;
6017;SDS011;3037;51.068;13.780;2023-04-03T14:38:50;4.53;;;1.83;;
6017;SDS011;3037;51.068;13.780;2023-04-03T14:41:18;6.83;;;1.50;;
6017;SDS011;3037;51.068;13.780;2023-04-03T14:43:45;3.90;;;1.03;;
6017;SDS011;3037;51.068;13.780;2023-04-03T14:46:20;9.93;;;1.47;;
6017;SDS011;3037;51.068;13.780;2023-04-03T14:48:51;3.70;;;1.57;;
6017;SDS011;3037;51.068;13.780;2023-04-03T14:51:16;2.83;;;1.77;;
6017;SDS011;3037;51.068;13.780;2023-04-03T14:53:42;4.53;;;1.50;;
6017;SDS011;3037;51.068;13.780;2023-04-03T14:56:19;2.17;;;1.50;;
6017;SDS011;3037;51.068;13.780;2023-04-03T14:58:54;4.80;;;2.03;;
6017;SDS011;3037;51.068;13.780;2023-04-03T15:01:22;2.90;;;1.63;;
6017;SDS011;3037;51.068;13.780;2023-04-03T15:03:48;1.70;;;1.40;;
6017;SDS011;3037;51.068;13.780;2023-04-03T15:06:14;1.83;;;1.17;;
6017;SDS011;3037;51.068;13.780;2023-04-03T15:08:40;2.10;;;1.90;;
6017;SDS011;3037;51.068;13.780;2023-04-03T15:11:07;4.70;;;2.27;;
6017;SDS011;3037;51.068;13.780;2023-04-03T15:13:36;2.10;;;1.80;;
6017;SDS011;3037;51.068;13.780;2023-04-03T15:16:03;1.60;;;1.50;;
6017;SDS011;3037;51.068;13.780;2023-04-03T15:18:31;7.63;;;2.03;;
6017;SDS011;3037;51.068;13.780;2023-04-03T15:21:02;2.17;;;1.60;;
6017;SDS011;3037;51.068;13.780;2023-04-03T15:23:27;1.30;;;1.20;;
6017;SDS011;3037;51.068;13.780;2023-04-03T15:25:54;1.67;;;1.50;;
6017;SDS011;3037;51.068;13.780;2023-04-03T15:28:22;4.10;;;1.90;;
6017;SDS011;3037;51.068;13.780;2023-04-03T15:30:52;5.90;;;1.20;;
6017;SDS011;3037;51.068;13.780;2023-04-03T15:33:18;1.73;;;1.43;;
6017;SDS011;3037;51.068;13.780;2023-04-03T15:35:43;1.30;;;1.20;;
6017;SDS011;3037;51.068;13.780;2023-04-03T15:38:09;5.87;;;1.73;;
6017;SDS011;3037;51.068;13.780;2023-04-03T15:40:35;2.20;;;1.43;;
6017;SDS011;3037;51.068;13.780;2023-04-03T15:43:00;7.40;;;1.27;;
6017;SDS011;3037;51.068;13.780;2023-04-03T15:45:28;1.50;;;1.40;;
6017;SDS011;3037;51.068;13.780;2023-04-03T15:47:55;1.27;;;1.17;;
6017;SDS011;3037;51.068;13.780;2023-04-03T15:50:21;1.50;;;1.40;;
6017;SDS011;3037;51.068;13.780;2023-04-03T15:52:48;2.77;;;1.43;;
6017;SDS011;3037;51.068;13.780;2023-04-03T15:55:19;4.80;;;1.60;;
6017;SDS011;3037;51.068;13.780;2023-04-03T15:57:48;1.47;;;1.37;;
6017;SDS011;3037;51.068;13.780;2023-04-03T16:00:14;1.60;;;1.50;;
6017;SDS011;3037;51.068;13.780;2023-04-03T16:02:40;2.57;;;1.60;;
6017;SDS011;3037;51.068;13.780;2023-04-03T16:05:06;2.70;;;1.77;;
6017;SDS011;3037;51.068;13.780;2023-04-03T16:07:33;1.73;;;1.47;;
6017;SDS011;3037;51.068;13.780;2023-04-03T16:09:59;7.60;;;1.50;;
6017;SDS011;3037;51.068;13.780;2023-04-03T16:12:24;1.10;;;1.10;;
6017;SDS011;3037;51.068;13.780;2023-04-03T16:14:50;7.10;;;2.50;;
6017;SDS011;3037;51.068;13.780;2023-04-03T16:17:16;6.73;;;1.70;;
6017;SDS011;3037;51.068;13.780;2023-04-03T16:19:42;5.53;;;1.90;;
6017;SDS011;3037;51.068;13.780;2023-04-03T16:22:07;4.20;;;2.37;;
6017;SDS011;3037;51.068;13.780;2023-04-03T16:24:33;3.63;;;1.53;;